Time;durP1;ratioP1;P1;durP2;ratioP2;P2;SDS_P1;SDS_P2;PMS_P1;PMS_P2;Temp;Humidity;BMP_temperature;BMP_pressure;BME280_temperature;BME280_humidity;BME280_pressure;Samples;Min_cycle;Max_cycle;Signal;HPM_P1;HPM_P2
2022/01/31 00:00:17;;;;;;;;;14.00;12.50;;;;;7.17;100.00;101995.09;5079434;27;45489;-81
2022/01/31 00:02:46;;;;;;;;;17.25;11.75;;;;;7.11;100.00;101989.16;5079525;27;44808;-81
2022/01/31 00:05:12;;;;;;;;;9.25;7.25;;;;;7.10;100.00;101983.00;5097817;27;45426;-81
2022/01/31 00:07:38;;;;;;;;;19.25;15.00;;;;;7.11;100.00;101978.59;5097417;27;45212;-81
2022/01/31 00:10:11;;;;;;;;;19.00;13.00;;;;;7.10;100.00;101958.34;5079283;27;44865;-80
2022/01/31 00:13:17;;;;;;;;;11.25;10.50;;;;;7.08;100.00;101960.19;5097506;27;44660;-81
2022/01/31 00:15:37;;;;;;;;;23.75;12.50;;;;;7.12;100.00;101952.13;5092648;27;45326;-82
2022/01/31 00:18:02;;;;;;;;;16.25;12.00;;;;;7.15;100.00;101930.00;5078849;27;45420;-80
2022/01/31 00:20:28;;;;;;;;;18.50;11.50;;;;;7.16;100.00;101931.75;5097847;27;45450;-81
2022/01/31 00:22:53;;;;;;;;;12.25;12.25;;;;;7.16;100.00;101924.69;5100860;27;45428;-81
2022/01/31 00:25:18;;;;;;;;;12.25;10.50;;;;;7.17;100.00;101918.47;5103192;27;45596;-81
2022/01/31 00:27:44;;;;;;;;;12.75;10.00;;;;;7.18;100.00;101914.06;5098563;27;44917;-80
2022/01/31 00:30:10;;;;;;;;;10.25;10.00;;;;;7.13;100.00;101913.34;5099970;27;45433;-81
2022/01/31 00:32:35;;;;;;;;;13.50;6.25;;;;;7.10;100.00;101914.28;5103607;27;44764;-81
2022/01/31 00:35:01;;;;;;;;;6.00;6.00;;;;;7.02;100.00;101895.22;5104101;27;44785;-80
2022/01/31 00:37:26;;;;;;;;;9.50;7.00;;;;;7.03;100.00;101886.38;5104327;27;45428;-82
2022/01/31 00:39:52;;;;;;;;;14.25;7.00;;;;;6.97;100.00;101889.22;5086671;27;44656;-81
2022/01/31 00:42:19;;;;;;;;;8.00;3.50;;;;;6.93;100.00;101883.16;5104827;27;44633;-81
2022/01/31 00:44:58;;;;;;;;;6.50;4.00;;;;;6.89;100.00;101885.97;5086421;27;44721;-81
2022/01/31 00:47:30;;;;;;;;;8.75;7.25;;;;;6.87;100.00;101898.38;5103617;27;45459;-81
2022/01/31 00:50:18;;;;;;;;;7.75;6.25;;;;;6.87;100.00;101895.72;5103230;27;45244;-82
2022/01/31 00:52:43;;;;;;;;;3.00;0.00;;;;;6.91;100.00;101881.47;5097852;27;45459;-81
2022/01/31 00:55:11;;;;;;;;;8.75;3.25;;;;;6.93;100.00;101903.44;5099402;27;45572;-81
2022/01/31 00:57:37;;;;;;;;;9.75;8.50;;;;;6.91;100.00;101900.88;5099540;27;45262;-80
2022/01/31 01:00:05;;;;;;;;;5.00;5.00;;;;;6.95;100.00;101894.53;5100188;27;44718;-80
2022/01/31 01:02:31;;;;;;;;;10.25;5.75;;;;;6.99;100.00;101886.53;5097182;27;45309;-80
2022/01/31 01:04:56;;;;;;;;;4.00;2.25;;;;;6.97;100.00;101886.56;5096921;27;44886;-80
2022/01/31 01:07:22;;;;;;;;;8.50;7.25;;;;;7.00;100.00;101864.47;5096886;27;45063;-80
2022/01/31 01:09:50;;;;;;;;;6.00;4.00;;;;;7.03;100.00;101852.03;5096998;27;45410;-81
2022/01/31 01:12:18;;;;;;;;;5.25;5.25;;;;;7.02;100.00;101847.66;5078218;27;44761;-81
2022/01/31 01:14:45;;;;;;;;;8.75;6.00;;;;;7.02;100.00;101850.31;5097015;27;45241;-80
2022/01/31 01:17:10;;;;;;;;;9.25;5.25;;;;;7.08;100.00;101851.88;5095225;27;45300;-80
2022/01/31 01:19:36;;;;;;;;;6.75;6.75;;;;;7.03;100.00;101845.88;5096646;27;45152;-80
2022/01/31 01:22:02;;;;;;;;;9.50;6.50;;;;;7.04;100.00;101837.03;5096506;27;45463;-79
2022/01/31 01:24:28;;;;;;;;;9.25;5.00;;;;;7.03;100.00;101830.03;5096554;27;45257;-81
2022/01/31 01:26:54;;;;;;;;;6.00;4.00;;;;;7.03;100.00;101830.03;5096185;27;45356;-80
2022/01/31 01:29:20;;;;;;;;;3.25;1.25;;;;;7.10;100.00;101831.53;5099659;27;45465;-81
2022/01/31 01:31:47;;;;;;;;;5.50;5.00;;;;;7.04;100.00;101829.97;5081540;27;45297;-80
2022/01/31 01:34:12;;;;;;;;;8.00;5.00;;;;;7.02;100.00;101805.38;5099183;27;45584;-79
2022/01/31 01:36:38;;;;;;;;;8.75;5.25;;;;;7.05;100.00;101781.47;5099210;27;44906;-81
2022/01/31 01:39:05;;;;;;;;;10.25;5.50;;;;;7.04;100.00;101785.03;5098417;27;45173;-79
2022/01/31 01:41:31;;;;;;;;;9.25;5.50;;;;;7.04;100.00;101784.19;5101330;27;44882;-81
2022/01/31 01:44:03;;;;;;;;;6.50;3.00;;;;;6.99;100.00;101757.06;5101020;27;45535;-80
2022/01/31 01:46:31;;;;;;;;;0.00;0.00;;;;;6.97;100.00;101778.28;5100374;27;44965;-81
2022/01/31 01:53:12;;;;;;;;;5.75;4.00;;;;;6.97;100.00;101762.41;5077488;28;45308;-80
2022/01/31 01:55:47;;;;;;;;;3.00;3.00;;;;;7.02;100.00;101756.97;5027271;28;45274;-79
2022/01/31 01:58:39;;;;;;;;;;;;;;;;;;;;;
2022/01/31 02:04:46;;;;;;;;;;;;;;;;;;;;;
2022/01/31 02:22:13;;;;;;;;;;;;;;;;;;;;;
2022/01/31 02:24:30;;;;;;;;;6.75;4.75;;;;;7.22;100.00;101754.47;4861016;29;45672;-79
2022/01/31 02:29:46;;;;;;;;;6.00;3.75;;;;;7.19;100.00;101721.06;4877667;29;45566;-79
2022/01/31 02:35:21;;;;;;;;;6.00;1.00;;;;;7.12;100.00;101716.94;4880430;29;45430;-79
2022/01/31 02:38:16;;;;;;;;;7.50;5.00;;;;;7.06;100.00;101696.03;4880820;29;45892;-79
2022/01/31 02:41:10;;;;;;;;;6.25;4.50;;;;;7.10;100.00;101702.06;4897784;28;44893;-80
2022/01/31 02:46:52;;;;;;;;;7.00;3.75;;;;;7.08;100.00;101696.84;4903059;28;45526;-79
2022/01/31 02:53:36;;;;;;;;;;;;;;;;;;;;;
2022/01/31 02:56:34;;;;;;;;;6.00;0.00;;;;;7.04;100.00;101673.22;4892746;28;69566;-78
2022/01/31 02:59:04;;;;;;;;;4.00;4.00;;;;;7.03;100.00;101682.06;4938298;28;45053;-79
2022/01/31 03:05:36;;;;;;;;;;;;;;;;;;;;;
2022/01/31 03:08:13;;;;;;;;;4.25;4.25;;;;;7.12;100.00;101656.19;4838820;29;69405;-79
2022/01/31 03:10:56;;;;;;;;;1.50;1.00;;;;;7.22;100.00;101654.91;4842893;29;45057;-79
2022/01/31 03:13:32;;;;;;;;;1.75;0.00;;;;;7.35;100.00;101639.44;4843081;29;44897;-78
2022/01/31 03:16:07;;;;;;;;;4.00;2.00;;;;;7.44;100.00;101632.91;4845252;29;45436;-79
2022/01/31 03:18:54;;;;;;;;;4.75;2.25;;;;;7.50;100.00;101643.25;4845929;29;44974;-80
2022/01/31 03:21:51;;;;;;;;;3.75;1.75;;;;;7.51;100.00;101633.56;4846244;29;45337;-80
2022/01/31 03:24:23;;;;;;;;;4.60;3.60;;;;;7.56;100.00;101647.44;4875671;29;45525;-79
2022/01/31 03:26:58;;;;;;;;;2.25;2.00;;;;;7.56;100.00;101606.00;4880815;29;45364;-79
2022/01/31 03:29:24;;;;;;;;;4.25;3.00;;;;;7.57;100.00;101634.16;4880399;29;44801;-80
2022/01/31 03:31:49;;;;;;;;;2.00;1.75;;;;;7.58;100.00;101630.56;4889471;28;45351;-80
2022/01/31 03:34:14;;;;;;;;;2.25;2.00;;;;;7.63;100.00;101641.84;4953892;28;45343;-82
2022/01/31 03:36:40;;;;;;;;;7.00;4.00;;;;;7.64;100.00;101650.63;5019905;28;45277;-79
2022/01/31 03:39:05;;;;;;;;;2.00;2.00;;;;;7.73;100.00;101621.16;5020360;28;44845;-80
2022/01/31 03:41:31;;;;;;;;;1.50;1.50;;;;;7.82;100.00;101625.22;5052706;27;45332;-80
2022/01/31 03:43:56;;;;;;;;;2.00;1.00;;;;;7.78;100.00;101634.19;5103312;27;45318;-80
2022/01/31 03:46:23;;;;;;;;;3.25;2.25;;;;;7.84;100.00;101618.97;5103562;27;44747;-80
2022/01/31 03:48:49;;;;;;;;;5.50;1.00;;;;;7.84;100.00;101607.53;5103222;27;45607;-79
2022/01/31 03:51:15;;;;;;;;;1.00;1.00;;;;;7.83;100.00;101608.41;5104167;27;45164;-80
2022/01/31 03:53:40;;;;;;;;;3.00;3.00;;;;;7.86;100.00;101601.22;5101550;27;45504;-80
2022/01/31 03:56:06;;;;;;;;;2.00;1.75;;;;;7.90;100.00;101601.97;5098288;27;45313;-80
2022/01/31 03:58:31;;;;;;;;;3.00;2.25;;;;;7.90;100.00;101586.09;5097952;27;45629;-79
2022/01/31 04:00:57;;;;;;;;;2.25;2.25;;;;;7.89;100.00;101597.59;5101668;27;46528;-80
2022/01/31 04:03:22;;;;;;;;;6.00;2.00;;;;;7.86;100.00;101593.28;5098556;27;45359;-85
2022/01/31 04:05:47;;;;;;;;;1.25;1.25;;;;;7.82;100.00;101593.47;5099349;27;44849;-84
2022/01/31 04:08:13;;;;;;;;;2.50;1.00;;;;;7.78;100.00;101619.19;5099490;27;45465;-84
2022/01/31 04:10:39;;;;;;;;;2.25;1.00;;;;;7.70;100.00;101627.47;5098149;27;45341;-81
2022/01/31 04:13:08;;;;;;;;;3.50;1.00;;;;;7.63;100.00;101628.63;5103038;27;45421;-80
2022/01/31 04:15:34;;;;;;;;;1.00;1.00;;;;;7.57;100.00;101636.81;5118200;27;45378;-80
2022/01/31 04:18:00;;;;;;;;;1.00;1.00;;;;;7.53;100.00;101658.13;5118363;27;45183;-79
2022/01/31 04:20:25;;;;;;;;;2.75;1.50;;;;;7.54;100.00;101652.78;5117634;27;46181;-80
2022/01/31 04:22:58;;;;;;;;;4.00;1.25;;;;;7.52;100.00;101654.63;5118359;27;44809;-80
2022/01/31 04:25:42;;;;;;;;;4.00;1.00;;;;;7.54;100.00;101655.41;5100071;27;45338;-80
2022/01/31 04:28:17;;;;;;;;;1.25;1.25;;;;;7.54;100.00;101660.72;5123330;27;45622;-79
2022/01/31 04:30:51;;;;;;;;;2.00;1.75;;;;;7.54;100.00;101652.78;5120595;27;45562;-80
2022/01/31 04:33:16;;;;;;;;;1.20;0.40;;;;;7.57;100.00;101646.50;5118257;27;44785;-80
2022/01/31 04:35:41;;;;;;;;;3.25;1.00;;;;;7.62;100.00;101647.19;5099346;27;44868;-80
2022/01/31 04:38:07;;;;;;;;;0.75;0.75;;;;;7.64;100.00;101645.34;5117973;27;45450;-80
2022/01/31 04:40:33;;;;;;;;;2.00;1.00;;;;;7.69;100.00;101662.75;5117772;27;45425;-80
2022/01/31 04:42:59;;;;;;;;;2.80;2.00;;;;;7.71;100.00;101642.41;5118036;27;45448;-80
2022/01/31 04:45:26;;;;;;;;;3.00;1.00;;;;;7.74;100.00;101644.06;5117684;27;45422;-79
2022/01/31 04:47:51;;;;;;;;;3.00;1.25;;;;;7.78;100.00;101650.94;5099057;27;45231;-80
2022/01/31 04:50:17;;;;;;;;;0.25;0.25;;;;;7.79;100.00;101625.38;5117137;27;45369;-80
2022/01/31 04:52:42;;;;;;;;;1.00;1.00;;;;;7.79;100.00;101635.94;5117798;27;44737;-80
2022/01/31 04:55:09;;;;;;;;;2.75;2.75;;;;;7.82;100.00;101615.50;5116982;27;44800;-81
2022/01/31 04:57:34;;;;;;;;;4.00;2.50;;;;;7.81;100.00;101621.72;5116905;27;44816;-80
2022/01/31 05:00:00;;;;;;;;;2.00;2.00;;;;;7.86;100.00;101621.53;5117794;27;45609;-79
2022/01/31 05:02:26;;;;;;;;;3.00;3.00;;;;;7.87;100.00;101626.75;5118898;27;45361;-79
2022/01/31 05:04:51;;;;;;;;;5.50;2.00;;;;;7.87;100.00;101624.09;5104417;27;45862;-81
2022/01/31 05:07:17;;;;;;;;;3.25;2.50;;;;;7.89;100.00;101629.34;5118625;27;45456;-80
2022/01/31 05:09:44;;;;;;;;;1.00;1.00;;;;;7.89;100.00;101616.97;5116361;27;45456;-80
2022/01/31 05:12:10;;;;;;;;;2.80;1.40;;;;;7.91;100.00;101623.06;5117593;27;45354;-80
2022/01/31 05:14:35;;;;;;;;;5.00;4.00;;;;;7.98;100.00;101631.63;5116720;27;44867;-79
2022/01/31 05:17:01;;;;;;;;;2.00;1.00;;;;;8.09;100.00;101621.44;5116967;27;45441;-80
2022/01/31 05:19:26;;;;;;;;;5.25;4.00;;;;;8.23;100.00;101623.50;5116838;27;45323;-80
2022/01/31 05:21:52;;;;;;;;;5.00;2.00;;;;;8.30;100.00;101645.25;5116948;27;44804;-78
2022/01/31 05:24:17;;;;;;;;;1.00;1.00;;;;;8.34;100.00;101630.97;5098973;27;45050;-77
2022/01/31 05:26:42;;;;;;;;;1.00;1.00;;;;;8.37;100.00;101613.22;5118109;27;45279;-78
2022/01/31 05:29:08;;;;;;;;;3.75;1.25;;;;;8.38;100.00;101630.81;5117560;27;45259;-79
2022/01/31 05:31:33;;;;;;;;;4.75;1.75;;;;;8.36;100.00;101630.00;5116876;27;44880;-79
2022/01/31 05:33:58;;;;;;;;;2.00;0.00;;;;;8.38;100.00;101646.69;5117332;27;45339;-80
2022/01/31 05:36:24;;;;;;;;;5.75;2.00;;;;;8.38;100.00;101659.06;5099405;27;45226;-79
2022/01/31 05:38:50;;;;;;;;;1.00;1.00;;;;;8.39;100.00;101644.91;5117394;27;45390;-79
2022/01/31 05:41:19;;;;;;;;;3.00;3.00;;;;;8.37;100.00;101637.03;5120715;27;44703;-79
2022/01/31 05:43:47;;;;;;;;;1.20;0.80;;;;;8.35;100.00;101628.25;5118773;27;44815;-79
2022/01/31 05:46:13;;;;;;;;;3.60;0.80;;;;;8.33;100.00;101653.09;5117357;27;45217;-79
2022/01/31 05:48:38;;;;;;;;;1.75;0.00;;;;;8.32;100.00;101640.78;5110786;27;45379;-80
2022/01/31 05:51:08;;;;;;;;;4.50;1.75;;;;;8.28;100.00;101641.84;5077759;27;44879;-78
2022/01/31 05:53:33;;;;;;;;;2.60;1.40;;;;;8.24;100.00;101641.94;5095378;27;44891;-80
2022/01/31 05:55:59;;;;;;;;;2.75;2.75;;;;;8.24;100.00;101668.41;5097009;27;45398;-80
2022/01/31 05:58:24;;;;;;;;;3.50;1.25;;;;;8.23;100.00;101661.41;5096287;27;45205;-81
2022/01/31 06:00:52;;;;;;;;;1.00;1.00;;;;;8.23;100.00;101632.28;5096586;27;45414;-81
2022/01/31 06:03:18;;;;;;;;;5.00;2.00;;;;;8.15;100.00;101626.47;5096559;27;45454;-80
2022/01/31 06:05:43;;;;;;;;;4.50;1.50;;;;;8.12;100.00;101631.00;5095801;27;44837;-80
2022/01/31 06:08:08;;;;;;;;;4.25;1.00;;;;;8.10;100.00;101627.59;5096392;27;45604;-79
2022/01/31 06:10:41;;;;;;;;;2.00;2.00;;;;;8.06;100.00;101644.50;5096217;27;45153;-79
2022/01/31 06:13:06;;;;;;;;;1.40;1.40;;;;;8.04;100.00;101638.44;5096906;27;44822;-79
2022/01/31 06:15:31;;;;;;;;;2.25;1.75;;;;;7.99;100.00;101647.41;5078270;27;44861;-81
2022/01/31 06:17:57;;;;;;;;;5.25;2.00;;;;;7.97;100.00;101653.69;5099642;27;45223;-79
2022/01/31 06:20:22;;;;;;;;;1.75;0.75;;;;;7.97;100.00;101643.97;5098376;27;45242;-79
2022/01/31 06:22:50;;;;;;;;;6.00;2.00;;;;;7.94;100.00;101662.63;5096084;27;45275;-80
2022/01/31 06:25:16;;;;;;;;;2.00;1.25;;;;;7.95;100.00;101661.69;5096129;27;45401;-80
2022/01/31 06:27:41;;;;;;;;;3.25;3.25;;;;;7.94;100.00;101659.13;5098508;27;45446;-82
2022/01/31 06:30:08;;;;;;;;;6.50;3.50;;;;;7.92;100.00;101660.94;5099353;27;44786;-80
2022/01/31 06:32:33;;;;;;;;;3.60;1.00;;;;;7.88;100.00;101654.94;5098589;27;45430;-80
2022/01/31 06:34:59;;;;;;;;;12.00;2.00;;;;;7.86;100.00;101648.00;5099951;27;45334;-81
2022/01/31 06:37:24;;;;;;;;;5.50;1.00;;;;;7.85;100.00;101659.50;5101600;27;45288;-82
2022/01/31 06:39:49;;;;;;;;;4.00;1.00;;;;;7.84;100.00;101671.00;5082526;27;45405;-80
2022/01/31 06:42:15;;;;;;;;;4.00;1.75;;;;;7.84;100.00;101649.84;5101858;27;45319;-81
2022/01/31 06:44:41;;;;;;;;;1.00;1.00;;;;;7.84;100.00;101639.25;5101415;27;44828;-80
2022/01/31 06:47:07;;;;;;;;;3.00;1.40;;;;;7.80;100.00;101643.81;5100446;27;45112;-79
2022/01/31 06:49:32;;;;;;;;;1.00;1.00;;;;;7.78;100.00;101650.94;5080911;27;45254;-81
2022/01/31 06:51:57;;;;;;;;;0.00;0.00;;;;;7.80;100.00;101651.75;5100397;27;45291;-82
2022/01/31 06:54:23;;;;;;;;;4.00;3.00;;;;;7.78;100.00;101658.88;5100877;27;45224;-85
2022/01/31 06:56:48;;;;;;;;;4.25;3.00;;;;;7.77;100.00;101643.91;5103515;27;45224;-82
2022/01/31 06:59:14;;;;;;;;;1.00;1.00;;;;;7.73;100.00;101645.81;5102501;27;45141;-83
2022/01/31 07:01:39;;;;;;;;;3.25;2.00;;;;;7.72;100.00;101633.53;5100127;27;44775;-84
2022/01/31 07:04:04;;;;;;;;;0.00;0.00;;;;;7.69;100.00;101652.19;5081081;27;45288;-83
2022/01/31 07:06:30;;;;;;;;;4.75;2.00;;;;;7.68;100.00;101661.03;5080900;27;45492;-83
2022/01/31 07:08:56;;;;;;;;;2.00;2.00;;;;;7.69;100.00;101669.84;5099787;27;44746;-84
2022/01/31 07:11:28;;;;;;;;;0.50;0.00;;;;;7.64;100.00;101670.03;5100193;27;44752;-82
2022/01/31 07:14:02;;;;;;;;;3.75;3.00;;;;;7.67;100.00;101674.31;5099782;27;44820;-82
2022/01/31 07:16:27;;;;;;;;;6.25;3.00;;;;;7.64;100.00;101680.59;5099402;27;45065;-83
2022/01/31 07:18:59;;;;;;;;;4.00;2.50;;;;;7.64;100.00;101682.34;5099590;27;45432;-82
2022/01/31 07:21:32;;;;;;;;;5.00;3.00;;;;;7.59;100.00;101695.78;5080892;27;45473;-82
2022/01/31 07:24:17;;;;;;;;;4.75;3.00;;;;;7.57;100.00;101694.97;5099574;27;45362;-83
2022/01/31 07:26:45;;;;;;;;;3.25;2.00;;;;;7.60;100.00;101691.34;5099275;27;45384;-83
2022/01/31 07:29:11;;;;;;;;;0.80;0.80;;;;;7.56;100.00;101685.31;5099707;27;44793;-83
2022/01/31 07:31:36;;;;;;;;;2.00;2.00;;;;;7.56;100.00;101685.31;5104999;27;44778;-81
2022/01/31 07:34:02;;;;;;;;;2.00;2.00;;;;;7.53;100.00;101700.44;5106333;27;45336;-83
2022/01/31 07:36:29;;;;;;;;;1.50;1.00;;;;;7.52;100.00;101704.00;5105602;27;45148;-84
2022/01/31 07:38:55;;;;;;;;;2.40;1.40;;;;;7.51;100.00;101729.59;5099089;27;44764;-81
2022/01/31 07:41:20;;;;;;;;;4.25;1.00;;;;;7.52;100.00;101691.66;5098367;27;44856;-83
2022/01/31 07:43:46;;;;;;;;;3.25;2.00;;;;;7.53;100.00;101681.94;5079979;27;45606;-82
2022/01/31 07:46:15;;;;;;;;;6.00;3.75;;;;;7.51;100.00;101692.56;5098086;27;45223;-83
2022/01/31 07:48:41;;;;;;;;;4.40;3.00;;;;;7.54;100.00;101694.22;5097961;27;45367;-83
2022/01/31 07:51:08;;;;;;;;;0.75;0.75;;;;;7.54;100.00;101723.31;5103992;27;44824;-82
2022/01/31 07:53:34;;;;;;;;;2.25;2.00;;;;;7.57;100.00;101700.25;5121925;27;45518;-85
2022/01/31 07:56:01;;;;;;;;;2.75;1.50;;;;;7.61;100.00;101724.81;5131932;27;45200;-86
2022/01/31 07:58:26;;;;;;;;;3.00;1.25;;;;;7.64;100.00;101706.16;5122179;27;44709;-82
2022/01/31 08:00:52;;;;;;;;;2.00;2.00;;;;;7.68;100.00;101708.63;5119069;27;45506;-81
2022/01/31 08:03:17;;;;;;;;;2.75;2.00;;;;;7.70;100.00;101733.25;5112815;27;44850;-82
2022/01/31 08:05:43;;;;;;;;;3.50;3.00;;;;;7.75;100.00;101732.22;5101159;27;45191;-82
2022/01/31 08:08:09;;;;;;;;;2.00;1.50;;;;;7.73;100.00;101745.47;5118992;27;44896;-81
2022/01/31 08:10:37;;;;;;;;;5.00;2.75;;;;;7.72;100.00;101752.53;5119066;27;44741;-83
2022/01/31 08:13:04;;;;;;;;;4.50;1.25;;;;;7.74;100.00;101757.81;5119806;27;45318;-82
2022/01/31 08:15:30;;;;;;;;;8.00;2.00;;;;;7.82;100.00;101753.06;5125830;27;45194;-82
2022/01/31 08:17:55;;;;;;;;;6.50;3.50;;;;;7.80;100.00;101751.41;5122170;27;44806;-82
2022/01/31 08:20:21;;;;;;;;;3.50;2.00;;;;;7.83;100.00;101760.09;5118697;27;45273;-81
2022/01/31 08:22:46;;;;;;;;;6.00;1.00;;;;;7.86;100.00;101756.44;5117874;27;45451;-81
2022/01/31 08:25:15;;;;;;;;;6.25;3.00;;;;;7.87;100.00;101744.94;5118083;27;45421;-82
2022/01/31 08:27:49;;;;;;;;;4.50;3.00;;;;;7.86;100.00;101762.59;5118276;27;45660;-81
2022/01/31 08:30:21;;;;;;;;;3.00;1.50;;;;;7.91;100.00;101747.41;5117886;27;45535;-81
2022/01/31 08:32:58;;;;;;;;;1.00;1.00;;;;;7.83;100.00;101744.22;5099658;27;45558;-81
2022/01/31 08:38:08;;;;;;;;;2.00;2.00;;;;;7.85;100.00;101760.88;5118181;27;45378;-82
2022/01/31 08:40:33;;;;;;;;;5.00;2.75;;;;;7.86;100.00;101759.09;5118186;27;45410;-82
2022/01/31 08:42:58;;;;;;;;;4.50;2.00;;;;;7.90;100.00;101750.97;5118204;27;44875;-81
2022/01/31 08:45:24;;;;;;;;;3.75;3.25;;;;;7.92;100.00;101751.75;5117931;27;45398;-81
2022/01/31 08:47:49;;;;;;;;;2.00;1.50;;;;;7.92;100.00;101735.88;5118112;27;45334;-83
2022/01/31 08:50:14;;;;;;;;;3.50;0.00;;;;;7.92;100.00;101749.13;5116794;27;44903;-81
2022/01/31 08:52:40;;;;;;;;;3.00;3.00;;;;;7.92;100.00;101782.66;5118075;27;45333;-82
2022/01/31 08:55:07;;;;;;;;;5.75;2.75;;;;;7.89;100.00;101788.09;5121921;27;45166;-81
2022/01/31 08:57:32;;;;;;;;;5.50;3.00;;;;;7.93;100.00;101784.41;5123906;27;45227;-82
2022/01/31 09:00:00;;;;;;;;;2.00;2.00;;;;;7.97;100.00;101791.28;5111811;27;45243;-82
2022/01/31 09:02:37;;;;;;;;;5.00;5.00;;;;;7.93;100.00;101800.28;5098723;27;45365;-83
2022/01/31 09:05:03;;;;;;;;;7.50;6.75;;;;;7.97;100.00;101776.25;5098834;27;45159;-81
2022/01/31 09:07:30;;;;;;;;;6.20;3.00;;;;;7.94;100.00;101783.47;5114621;27;44832;-80
2022/01/31 09:09:57;;;;;;;;;2.00;2.00;;;;;7.99;100.00;101769.13;5117093;27;45326;-83
2022/01/31 09:12:27;;;;;;;;;4.75;3.75;;;;;8.13;100.00;101747.41;5101793;27;44788;-84
2022/01/31 09:14:52;;;;;;;;;6.75;3.75;;;;;8.32;100.00;101751.97;5103904;27;45280;-85
2022/01/31 09:17:18;;;;;;;;;3.75;2.50;;;;;8.45;100.00;101747.91;5104373;27;44786;-86
2022/01/31 09:19:43;;;;;;;;;12.00;4.00;;;;;8.36;100.00;101749.13;5085964;27;44899;-84
2022/01/31 09:22:08;;;;;;;;;3.00;1.25;;;;;8.29;100.00;101744.13;5110906;27;44816;-84
2022/01/31 09:24:38;;;;;;;;;3.00;2.00;;;;;8.24;100.00;101736.38;5111099;27;45543;-86
2022/01/31 09:27:05;;;;;;;;;4.00;3.00;;;;;8.15;100.00;101766.72;5098052;27;44843;-83
2022/01/31 09:29:30;;;;;;;;;1.80;1.00;;;;;8.30;100.00;101759.09;5102968;27;44815;-85
2022/01/31 09:31:56;;;;;;;;;5.50;3.50;;;;;8.34;100.00;101750.97;5104922;27;44975;-86
2022/01/31 09:34:23;;;;;;;;;6.75;3.00;;;;;8.31;100.00;101751.06;5124560;27;45276;-86
2022/01/31 09:36:48;;;;;;;;;4.60;4.60;;;;;8.26;100.00;101782.16;5126380;27;44717;-85
2022/01/31 09:39:14;;;;;;;;;5.25;2.50;;;;;8.22;100.00;101770.88;5108336;27;44756;-85
2022/01/31 09:41:42;;;;;;;;;4.75;1.75;;;;;8.26;100.00;101742.47;5101848;27;45233;-86
2022/01/31 09:44:14;;;;;;;;;5.50;5.50;;;;;8.33;100.00;101746.59;5087688;27;45401;-85
2022/01/31 09:49:25;;;;;;;;;4.00;2.00;;;;;8.62;100.00;101768.38;5109325;27;45483;-85
2022/01/31 09:51:51;;;;;;;;;6.00;4.00;;;;;8.80;100.00;101779.97;5120920;27;45045;-86
2022/01/31 09:54:16;;;;;;;;;7.50;1.00;;;;;8.77;100.00;101757.13;5122881;27;45392;-86
2022/01/31 09:56:45;;;;;;;;;5.50;2.50;;;;;8.85;100.00;101756.78;5095679;27;45409;-87
2022/01/31 09:59:13;;;;;;;;;4.25;4.00;;;;;8.82;100.00;101757.78;5117137;27;44858;-86
2022/01/31 10:01:46;;;;;;;;;3.50;2.25;;;;;8.56;100.00;101766.88;5119571;27;45258;-85
2022/01/31 10:04:18;;;;;;;;;3.20;1.40;;;;;8.60;100.00;101767.56;5107425;27;45051;-85
2022/01/31 10:06:47;;;;;;;;;5.80;3.60;;;;;8.60;100.00;101757.84;5113026;27;44729;-87
2022/01/31 10:09:24;;;;;;;;;4.80;3.60;;;;;8.51;100.00;101774.16;5114935;27;44888;-85
2022/01/31 10:12:04;;;;;;;;;6.00;2.25;;;;;8.50;100.00;101748.56;5094861;27;45425;-85
2022/01/31 10:17:29;;;;;;;;;4.00;2.20;;;;;8.57;100.00;101792.41;5115121;27;45287;-87
2022/01/31 10:20:01;;;;;;;;;5.20;4.20;;;;;8.71;100.00;101781.25;5107035;27;44891;-86
2022/01/31 10:22:30;;;;;;;;;4.80;3.60;;;;;8.66;100.00;101788.53;5107547;27;45136;-85
2022/01/31 10:24:58;;;;;;;;;3.80;1.00;;;;;8.77;100.00;101780.13;5126821;27;45416;-87
2022/01/31 10:27:29;;;;;;;;;2.00;2.00;;;;;8.78;100.00;101818.94;5114935;27;45351;-84
2022/01/31 10:30:08;;;;;;;;;3.80;0.00;;;;;8.90;100.00;101783.97;5101216;27;44735;-85
2022/01/31 10:32:37;;;;;;;;;1.60;0.20;;;;;8.78;100.00;101798.59;5103160;27;45398;-84
2022/01/31 10:35:14;;;;;;;;;3.60;2.40;;;;;8.86;100.00;101777.94;5119755;27;45738;-85
2022/01/31 10:37:41;;;;;;;;;8.00;6.20;;;;;8.94;100.00;101804.09;5122003;27;44914;-86
2022/01/31 10:45:56;;;;;;;;;4.00;4.00;;;;;8.18;100.00;101816.06;5112344;27;45394;-84
2022/01/31 10:53:43;;;;;;;;;4.75;3.00;;;;;8.19;100.00;101807.19;5122578;27;44843;-87
2022/01/31 10:56:10;;;;;;;;;5.25;3.75;;;;;8.25;100.00;101822.81;5128251;27;45278;-86
2022/01/31 10:58:53;;;;;;;;;8.00;2.20;;;;;8.33;100.00;101838.41;5090317;27;44766;-85
2022/01/31 11:01:19;;;;;;;;;4.40;2.20;;;;;8.47;100.00;101822.84;5115925;27;45199;-86
2022/01/31 11:03:45;;;;;;;;;5.75;3.00;;;;;8.62;100.00;101824.88;5118736;27;44768;-85
2022/01/31 11:06:13;;;;;;;;;6.50;2.75;;;;;8.76;100.00;101834.91;5118512;27;45267;-86
2022/01/31 11:08:39;;;;;;;;;6.20;1.40;;;;;8.63;100.00;101847.78;5100870;27;45106;-86
2022/01/31 11:11:05;;;;;;;;;4.40;2.20;;;;;8.59;100.00;101819.69;5134625;27;44788;-86
2022/01/31 11:13:35;;;;;;;;;2.75;2.00;;;;;8.60;100.00;101842.59;5124934;27;44830;-85
2022/01/31 11:16:00;;;;;;;;;2.20;1.20;;;;;8.71;100.00;101762.72;5110844;27;45319;-85
2022/01/31 11:18:31;;;;;;;;;4.00;1.00;;;;;8.64;100.00;101828.31;5132249;27;45244;-86
2022/01/31 11:21:05;;;;;;;;;7.20;3.60;;;;;8.68;100.00;101852.88;5126564;27;44971;-86
2022/01/31 11:23:37;;;;;;;;;4.00;1.00;;;;;8.76;100.00;101816.34;5118863;27;44941;-85
2022/01/31 11:26:04;;;;;;;;;4.80;1.00;;;;;8.73;100.00;101843.81;5118079;27;45511;-86
2022/01/31 11:28:33;;;;;;;;;4.20;1.20;;;;;8.88;100.00;101812.31;5120758;27;45340;-87
2022/01/31 11:30:59;;;;;;;;;5.40;2.00;;;;;8.87;100.00;101824.69;5115755;27;45246;-86
2022/01/31 11:33:26;;;;;;;;;4.80;2.20;;;;;8.95;100.00;101814.66;5115333;27;44855;-86
2022/01/31 11:35:51;;;;;;;;;6.00;0.80;;;;;8.91;100.00;101871.34;5116404;27;45452;-87
2022/01/31 11:38:17;;;;;;;;;2.00;2.00;;;;;8.65;100.00;101839.75;5127592;27;44847;-86
2022/01/31 11:40:44;;;;;;;;;6.75;2.50;;;;;8.31;100.00;101834.94;5115060;27;44696;-86
2022/01/31 11:43:10;;;;;;;;;4.00;2.50;;;;;8.23;100.00;101824.66;5101889;27;44916;-86
2022/01/31 11:45:39;;;;;;;;;2.40;2.00;;;;;8.10;100.00;101836.66;5118038;27;45697;-86
2022/01/31 11:48:12;;;;;;;;;0.40;0.40;;;;;8.12;100.00;101813.63;5092766;27;45230;-87
2022/01/31 11:50:46;;;;;;;;;3.25;3.00;;;;;8.30;100.00;101826.13;5107668;27;45287;-86
2022/01/31 11:53:12;;;;;;;;;2.00;0.00;;;;;8.42;100.00;101836.28;5107116;27;44820;-87
2022/01/31 11:55:39;;;;;;;;;3.00;1.00;;;;;8.57;100.00;101837.44;5115316;27;45172;-89
2022/01/31 11:58:15;;;;;;;;;8.20;1.20;;;;;8.56;100.00;101835.72;5115527;27;45475;-88
2022/01/31 12:00:41;;;;;;;;;1.80;1.80;;;;;8.37;100.00;101859.44;5108822;27;45557;-87
2022/01/31 12:03:09;;;;;;;;;1.25;0.00;;;;;7.49;100.00;101895.34;5085304;27;44917;-85
2022/01/31 12:05:36;;;;;;;;;3.50;0.50;;;;;6.44;100.00;101915.56;5118202;27;45199;-85
2022/01/31 12:08:08;;;;;;;;;3.20;1.00;;;;;6.14;100.00;101883.03;5095061;27;44727;-86
2022/01/31 12:10:42;;;;;;;;;1.00;1.00;;;;;6.13;100.00;101898.00;5089068;27;44800;-85
2022/01/31 12:13:45;;;;;;;;;4.00;1.00;;;;;6.27;100.00;101891.47;5105264;27;44967;-85
2022/01/31 12:16:35;;;;;;;;;1.50;1.50;;;;;6.36;100.00;101907.00;5107106;27;45333;-86
2022/01/31 12:19:35;;;;;;;;;1.75;1.00;;;;;6.43;100.00;101884.78;5104653;27;45409;-85
2022/01/31 12:22:06;;;;;;;;;4.50;1.50;;;;;6.58;100.00;101854.44;5116728;27;44899;-86
2022/01/31 12:24:34;;;;;;;;;3.25;2.25;;;;;6.74;100.00;101881.19;5090735;27;44888;-86
2022/01/31 12:27:13;;;;;;;;;1.00;1.00;;;;;6.88;100.00;101878.97;5111112;27;45330;-85
2022/01/31 12:29:52;;;;;;;;;1.75;1.25;;;;;7.06;100.00;101864.25;5113122;27;45035;-85
2022/01/31 12:32:38;;;;;;;;;10.75;9.50;;;;;7.27;100.00;101875.88;5089570;27;44827;-85
2022/01/31 12:35:05;;;;;;;;;14.75;10.50;;;;;7.39;100.00;101849.00;5106081;27;44980;-85
2022/01/31 12:37:36;;;;;;;;;1.00;1.00;;;;;7.51;100.00;101884.72;5085856;27;45402;-86